Youngstown, OH

06:57 AM EST die 23o November, anno 2014 (GMT -0500)
West Side | Change Station
CLOSE
Current Station
Personal Weather Stations
Location: Youngstown, OH
Elevation: 1010 ft
Nearby Weather Stations

Elev 1010 ft 41.09 °N, 80.70 °W | Updated 5 seconds ago

Pluvia
Pluvia
42.4 °F
Feels Like 42 °F
N
0.0
Ventus Variabilis Ventus from Inter Austrum et Zephyrum
Gusts 0.0 mph

Hodie
High -- | Low -- °F
--% Chance of Precip.
Yesterday
High -- | Low -- °F
Precip. -- in
7:19 AM 4:58 PM
New, 1% visible
Pressio 30.09 in
Visibilitas 7.0 milia passuum
Clouds Plerumque Nubila 3600 ft
Plerumque Nubila 5000 ft
Aequaliter Nubila 7000 ft
Frigus Venti 42 °F
Frigus in quo Ros apparet 29 °F
Umor 58%
Rainfall 0.04 in
Snow Depth Not available.
UV 0 out of 12
Pollen .10 out of 12
Air Quality Not available.
Flu Activity Not available.
METAR KYNG 231151Z 19006KT 7SM -RA BKN036 BKN050 OVC070 06/03 A3007 RMK AO2 SLP189 P0002 60003 70018 T00610033 10094 20061 53007

More Conditions Fewer Conditions

Pressio 30.09 in
Visibilitas 7.0 milia passuum
Clouds Plerumque Nubila 3600 ft
Plerumque Nubila 5000 ft
Aequaliter Nubila 7000 ft
Frigus Venti 42 °F
Frigus in quo Ros apparet 29 °F
Umor 58%
Rainfall 0.04 in
Snow Depth Not available.
UV 0 out of 12
Pollen .10 out of 12
Air Quality Not available.
Flu Activity Not available.
METAR KYNG 231151Z 19006KT 7SM -RA BKN036 BKN050 OVC070 06/03 A3007 RMK AO2 SLP189 P0002 60003 70018 T00610033 10094 20061 53007

More Conditions Fewer Conditions

10-Day Weather Forecast

Almanac

Astronomy

Nov. 23, 2014 Rise Set
Actual Time
Civil Twilight
Nautical Twilight
Astronomical Twilight
Moon
Length Of Visible Light
Length of Day
Tomorrow will be .
, % of the Moon is Illuminated

Today's Extremes

State Highs State Lows

Community

WunderPhotos

Upload Photos

1,773,036 photos uploaded!

WunderBlogs® & News

Nearby

Air Quality

  Air Quality AQ Index Pollutant
Not available.

Snow Depth

Station Depth Elevation

Earthquake Activity

City Distance Mag. Time & Date
Minimum magnitude displayed is 2.5.

Coastal Water Temperatures

Locus Calor

Nearby Weather Stations